sensor_id;sensor_type;location;lat;lon;timestamp;temperature;humidity
16515;DHT22;8370;52.556;7.970;2023-11-21T00:01:35;7.00;99.90
16515;DHT22;8370;52.556;7.970;2023-11-21T00:04:00;7.00;99.90
16515;DHT22;8370;52.556;7.970;2023-11-21T00:06:26;7.10;99.90
16515;DHT22;8370;52.556;7.970;2023-11-21T00:08:52;7.10;99.90
16515;DHT22;8370;52.556;7.970;2023-11-21T00:11:17;7.10;99.90
16515;DHT22;8370;52.556;7.970;2023-11-21T00:13:43;7.10;99.90
16515;DHT22;8370;52.556;7.970;2023-11-21T00:16:09;7.00;99.90
16515;DHT22;8370;52.556;7.970;2023-11-21T00:18:34;7.00;99.90
16515;DHT22;8370;52.556;7.970;2023-11-21T00:21:00;7.10;99.90
16515;DHT22;8370;52.556;7.970;2023-11-21T00:23:25;7.00;99.90
16515;DHT22;8370;52.556;7.970;2023-11-21T00:25:50;7.00;99.90
16515;DHT22;8370;52.556;7.970;2023-11-21T00:28:16;7.10;99.90
16515;DHT22;8370;52.556;7.970;2023-11-21T00:30:41;7.10;99.90
16515;DHT22;8370;52.556;7.970;2023-11-21T00:33:07;7.10;99.90
16515;DHT22;8370;52.556;7.970;2023-11-21T00:35:32;7.10;99.90
16515;DHT22;8370;52.556;7.970;2023-11-21T00:37:58;7.00;99.90
16515;DHT22;8370;52.556;7.970;2023-11-21T00:40:23;7.00;99.90
16515;DHT22;8370;52.556;7.970;2023-11-21T00:42:50;6.90;99.90
16515;DHT22;8370;52.556;7.970;2023-11-21T00:45:15;6.90;99.90
16515;DHT22;8370;52.556;7.970;2023-11-21T00:47:41;6.80;99.90
16515;DHT22;8370;52.556;7.970;2023-11-21T00:50:06;6.80;99.90
16515;DHT22;8370;52.556;7.970;2023-11-21T00:52:32;6.90;99.90
16515;DHT22;8370;52.556;7.970;2023-11-21T00:54:57;6.90;99.90
16515;DHT22;8370;52.556;7.970;2023-11-21T00:57:25;6.90;99.90
16515;DHT22;8370;52.556;7.970;2023-11-21T00:59:51;7.00;99.90
16515;DHT22;8370;52.556;7.970;2023-11-21T01:02:16;7.10;99.90
16515;DHT22;8370;52.556;7.970;2023-11-21T01:04:42;7.10;99.90
16515;DHT22;8370;52.556;7.970;2023-11-21T01:07:08;7.10;99.90
16515;DHT22;8370;52.556;7.970;2023-11-21T01:09:33;7.10;99.90
16515;DHT22;8370;52.556;7.970;2023-11-21T01:11:59;7.20;99.90
16515;DHT22;8370;52.556;7.970;2023-11-21T01:14:25;7.20;99.90
16515;DHT22;8370;52.556;7.970;2023-11-21T01:16:52;7.30;99.90
16515;DHT22;8370;52.556;7.970;2023-11-21T01:19:17;7.30;99.90
16515;DHT22;8370;52.556;7.970;2023-11-21T01:21:43;7.30;99.90
16515;DHT22;8370;52.556;7.970;2023-11-21T01:24:08;7.40;99.90
16515;DHT22;8370;52.556;7.970;2023-11-21T01:26:34;7.40;99.90
16515;DHT22;8370;52.556;7.970;2023-11-21T01:28:59;7.50;99.90
16515;DHT22;8370;52.556;7.970;2023-11-21T01:31:25;7.50;99.90
16515;DHT22;8370;52.556;7.970;2023-11-21T01:33:54;7.60;99.90
16515;DHT22;8370;52.556;7.970;2023-11-21T01:36:20;7.60;99.90
16515;DHT22;8370;52.556;7.970;2023-11-21T01:38:46;7.60;99.90
16515;DHT22;8370;52.556;7.970;2023-11-21T01:41:13;7.60;99.90
16515;DHT22;8370;52.556;7.970;2023-11-21T01:43:39;7.70;99.90
16515;DHT22;8370;52.556;7.970;2023-11-21T01:46:05;7.70;99.90
16515;DHT22;8370;52.556;7.970;2023-11-21T01:48:31;7.70;99.90
16515;DHT22;8370;52.556;7.970;2023-11-21T01:50:57;7.70;99.90
16515;DHT22;8370;52.556;7.970;2023-11-21T01:53:24;7.80;99.90
16515;DHT22;8370;52.556;7.970;2023-11-21T01:55:49;7.80;99.90
16515;DHT22;8370;52.556;7.970;2023-11-21T01:58:15;7.80;99.90
16515;DHT22;8370;52.556;7.970;2023-11-21T02:00:41;7.80;99.90
16515;DHT22;8370;52.556;7.970;2023-11-21T02:03:07;7.90;99.90
16515;DHT22;8370;52.556;7.970;2023-11-21T02:05:32;7.90;99.90
16515;DHT22;8370;52.556;7.970;2023-11-21T02:07:58;7.90;99.90
16515;DHT22;8370;52.556;7.970;2023-11-21T02:10:23;7.90;99.90
16515;DHT22;8370;52.556;7.970;2023-11-21T02:12:49;8.00;99.90
16515;DHT22;8370;52.556;7.970;2023-11-21T02:15:18;8.00;99.90
16515;DHT22;8370;52.556;7.970;2023-11-21T02:17:46;8.00;99.90
16515;DHT22;8370;52.556;7.970;2023-11-21T02:20:13;8.00;99.90
16515;DHT22;8370;52.556;7.970;2023-11-21T02:22:41;8.00;99.90
16515;DHT22;8370;52.556;7.970;2023-11-21T02:25:07;8.00;99.90
16515;DHT22;8370;52.556;7.970;2023-11-21T02:27:33;8.00;99.90
16515;DHT22;8370;52.556;7.970;2023-11-21T02:29:58;8.00;99.90
16515;DHT22;8370;52.556;7.970;2023-11-21T02:32:25;8.00;99.90
16515;DHT22;8370;52.556;7.970;2023-11-21T02:34:51;8.00;99.90
16515;DHT22;8370;52.556;7.970;2023-11-21T02:37:16;8.00;99.90
16515;DHT22;8370;52.556;7.970;2023-11-21T02:39:42;8.00;99.90
16515;DHT22;8370;52.556;7.970;2023-11-21T02:42:07;8.10;99.90
16515;DHT22;8370;52.556;7.970;2023-11-21T02:44:33;8.00;99.90
16515;DHT22;8370;52.556;7.970;2023-11-21T02:46:58;8.00;99.90
16515;DHT22;8370;52.556;7.970;2023-11-21T02:49:25;8.10;99.90
16515;DHT22;8370;52.556;7.970;2023-11-21T02:51:53;8.00;99.90
16515;DHT22;8370;52.556;7.970;2023-11-21T02:54:20;8.00;99.90
16515;DHT22;8370;52.556;7.970;2023-11-21T02:56:47;8.10;99.90
16515;DHT22;8370;52.556;7.970;2023-11-21T02:59:12;8.10;99.90
16515;DHT22;8370;52.556;7.970;2023-11-21T03:01:38;8.10;99.90
16515;DHT22;8370;52.556;7.970;2023-11-21T03:04:03;8.10;99.90
16515;DHT22;8370;52.556;7.970;2023-11-21T03:06:29;8.10;99.90
16515;DHT22;8370;52.556;7.970;2023-11-21T03:08:54;8.10;99.90
16515;DHT22;8370;52.556;7.970;2023-11-21T03:11:20;8.10;99.90
16515;DHT22;8370;52.556;7.970;2023-11-21T03:13:45;8.10;99.90
16515;DHT22;8370;52.556;7.970;2023-11-21T03:16:11;8.10;99.90
16515;DHT22;8370;52.556;7.970;2023-11-21T03:18:37;8.10;99.90
16515;DHT22;8370;52.556;7.970;2023-11-21T03:21:03;8.10;99.90
16515;DHT22;8370;52.556;7.970;2023-11-21T03:23:28;8.10;99.90
16515;DHT22;8370;52.556;7.970;2023-11-21T03:25:54;8.10;99.90
16515;DHT22;8370;52.556;7.970;2023-11-21T03:28:19;8.10;99.90
16515;DHT22;8370;52.556;7.970;2023-11-21T03:30:45;8.10;99.90
16515;DHT22;8370;52.556;7.970;2023-11-21T03:33:10;8.10;99.90
16515;DHT22;8370;52.556;7.970;2023-11-21T03:35:36;8.10;99.90
16515;DHT22;8370;52.556;7.970;2023-11-21T03:38:01;8.10;99.90
16515;DHT22;8370;52.556;7.970;2023-11-21T03:40:27;8.10;99.90
16515;DHT22;8370;52.556;7.970;2023-11-21T03:42:52;8.10;99.90
16515;DHT22;8370;52.556;7.970;2023-11-21T03:45:18;8.10;99.90
16515;DHT22;8370;52.556;7.970;2023-11-21T03:47:43;8.10;99.90
16515;DHT22;8370;52.556;7.970;2023-11-21T03:50:09;8.10;99.90
16515;DHT22;8370;52.556;7.970;2023-11-21T03:52:35;8.10;99.90
16515;DHT22;8370;52.556;7.970;2023-11-21T03:55:03;8.10;99.90
16515;DHT22;8370;52.556;7.970;2023-11-21T03:57:29;8.10;99.90
16515;DHT22;8370;52.556;7.970;2023-11-21T03:59:54;8.10;99.90
16515;DHT22;8370;52.556;7.970;2023-11-21T04:02:20;8.10;99.90
16515;DHT22;8370;52.556;7.970;2023-11-21T04:04:45;8.00;99.90
16515;DHT22;8370;52.556;7.970;2023-11-21T04:07:11;8.00;99.90
16515;DHT22;8370;52.556;7.970;2023-11-21T04:09:39;8.10;99.90
16515;DHT22;8370;52.556;7.970;2023-11-21T04:12:04;8.00;99.90
16515;DHT22;8370;52.556;7.970;2023-11-21T04:14:30;8.10;99.90
16515;DHT22;8370;52.556;7.970;2023-11-21T04:16:55;8.10;99.90
16515;DHT22;8370;52.556;7.970;2023-11-21T04:19:21;8.10;99.90
16515;DHT22;8370;52.556;7.970;2023-11-21T04:21:46;8.10;99.90
16515;DHT22;8370;52.556;7.970;2023-11-21T04:24:12;8.20;99.90
16515;DHT22;8370;52.556;7.970;2023-11-21T04:26:37;8.20;99.90
16515;DHT22;8370;52.556;7.970;2023-11-21T04:29:03;8.20;99.90
16515;DHT22;8370;52.556;7.970;2023-11-21T04:31:29;8.20;99.90
16515;DHT22;8370;52.556;7.970;2023-11-21T04:33:55;8.20;99.90
16515;DHT22;8370;52.556;7.970;2023-11-21T04:36:20;8.20;99.90
16515;DHT22;8370;52.556;7.970;2023-11-21T04:38:46;8.20;99.90
16515;DHT22;8370;52.556;7.970;2023-11-21T04:41:14;8.20;99.90
16515;DHT22;8370;52.556;7.970;2023-11-21T04:43:40;8.20;99.90
16515;DHT22;8370;52.556;7.970;2023-11-21T04:46:05;8.20;99.90
16515;DHT22;8370;52.556;7.970;2023-11-21T04:48:32;8.20;99.90
16515;DHT22;8370;52.556;7.970;2023-11-21T04:50:58;8.20;99.90
16515;DHT22;8370;52.556;7.970;2023-11-21T04:53:23;8.30;99.90
16515;DHT22;8370;52.556;7.970;2023-11-21T04:55:48;8.30;99.90
16515;DHT22;8370;52.556;7.970;2023-11-21T04:58:14;8.30;99.90
16515;DHT22;8370;52.556;7.970;2023-11-21T05:00:40;8.30;99.90
16515;DHT22;8370;52.556;7.970;2023-11-21T05:03:06;8.30;99.90
16515;DHT22;8370;52.556;7.970;2023-11-21T05:05:32;8.30;99.90
16515;DHT22;8370;52.556;7.970;2023-11-21T05:07:58;8.30;99.90
16515;DHT22;8370;52.556;7.970;2023-11-21T05:10:24;8.30;99.90
16515;DHT22;8370;52.556;7.970;2023-11-21T05:12:49;8.30;99.90
16515;DHT22;8370;52.556;7.970;2023-11-21T05:15:16;8.30;99.90
16515;DHT22;8370;52.556;7.970;2023-11-21T05:17:42;8.30;99.90
16515;DHT22;8370;52.556;7.970;2023-11-21T05:20:12;8.30;99.90
16515;DHT22;8370;52.556;7.970;2023-11-21T05:22:39;8.30;99.90
16515;DHT22;8370;52.556;7.970;2023-11-21T05:25:05;8.30;99.90
16515;DHT22;8370;52.556;7.970;2023-11-21T05:27:31;8.30;99.90
16515;DHT22;8370;52.556;7.970;2023-11-21T05:29:56;8.30;99.90
16515;DHT22;8370;52.556;7.970;2023-11-21T05:32:22;8.30;99.90
16515;DHT22;8370;52.556;7.970;2023-11-21T05:34:49;8.30;99.90
16515;DHT22;8370;52.556;7.970;2023-11-21T05:37:14;8.30;99.90
16515;DHT22;8370;52.556;7.970;2023-11-21T05:39:39;8.30;99.90
16515;DHT22;8370;52.556;7.970;2023-11-21T05:42:05;8.30;99.90
16515;DHT22;8370;52.556;7.970;2023-11-21T05:44:31;8.30;99.90
16515;DHT22;8370;52.556;7.970;2023-11-21T05:46:57;8.30;99.90
16515;DHT22;8370;52.556;7.970;2023-11-21T05:49:24;8.30;99.90
16515;DHT22;8370;52.556;7.970;2023-11-21T05:51:53;8.30;99.90
16515;DHT22;8370;52.556;7.970;2023-11-21T05:54:19;8.30;99.90
16515;DHT22;8370;52.556;7.970;2023-11-21T05:56:44;8.30;99.90
16515;DHT22;8370;52.556;7.970;2023-11-21T05:59:10;8.30;99.90
16515;DHT22;8370;52.556;7.970;2023-11-21T06:01:35;8.30;99.90
16515;DHT22;8370;52.556;7.970;2023-11-21T06:04:03;8.30;99.90
16515;DHT22;8370;52.556;7.970;2023-11-21T06:06:29;8.30;99.90
16515;DHT22;8370;52.556;7.970;2023-11-21T06:08:54;8.30;99.90
16515;DHT22;8370;52.556;7.970;2023-11-21T06:11:20;8.30;99.90
16515;DHT22;8370;52.556;7.970;2023-11-21T06:13:46;8.30;99.90
16515;DHT22;8370;52.556;7.970;2023-11-21T06:16:13;8.40;99.90
16515;DHT22;8370;52.556;7.970;2023-11-21T06:18:41;8.40;99.90
16515;DHT22;8370;52.556;7.970;2023-11-21T06:21:09;8.40;99.90
16515;DHT22;8370;52.556;7.970;2023-11-21T06:23:34;8.40;99.90
16515;DHT22;8370;52.556;7.970;2023-11-21T06:26:00;8.40;99.90
16515;DHT22;8370;52.556;7.970;2023-11-21T06:28:25;8.40;99.90
16515;DHT22;8370;52.556;7.970;2023-11-21T06:30:50;8.40;99.90
16515;DHT22;8370;52.556;7.970;2023-11-21T06:33:16;8.40;99.90
16515;DHT22;8370;52.556;7.970;2023-11-21T06:35:41;8.50;99.90
16515;DHT22;8370;52.556;7.970;2023-11-21T06:38:07;8.40;99.90
16515;DHT22;8370;52.556;7.970;2023-11-21T06:40:34;8.40;99.90
16515;DHT22;8370;52.556;7.970;2023-11-21T06:42:59;8.50;99.90
16515;DHT22;8370;52.556;7.970;2023-11-21T06:45:26;8.50;99.90
16515;DHT22;8370;52.556;7.970;2023-11-21T06:47:51;8.50;99.90
16515;DHT22;8370;52.556;7.970;2023-11-21T06:50:16;8.50;99.90
16515;DHT22;8370;52.556;7.970;2023-11-21T06:52:42;8.50;99.90
16515;DHT22;8370;52.556;7.970;2023-11-21T06:55:08;8.50;99.90
16515;DHT22;8370;52.556;7.970;2023-11-21T06:57:34;8.50;99.90
16515;DHT22;8370;52.556;7.970;2023-11-21T06:59:59;8.60;99.90
16515;DHT22;8370;52.556;7.970;2023-11-21T07:02:25;8.60;99.90
16515;DHT22;8370;52.556;7.970;2023-11-21T07:04:50;8.60;99.90
16515;DHT22;8370;52.556;7.970;2023-11-21T07:07:16;8.60;99.90
16515;DHT22;8370;52.556;7.970;2023-11-21T07:09:41;8.60;99.90
16515;DHT22;8370;52.556;7.970;2023-11-21T07:12:07;8.60;99.90
16515;DHT22;8370;52.556;7.970;2023-11-21T07:14:33;8.60;99.90
16515;DHT22;8370;52.556;7.970;2023-11-21T07:16:58;8.60;99.90
16515;DHT22;8370;52.556;7.970;2023-11-21T07:19:24;8.60;99.90
16515;DHT22;8370;52.556;7.970;2023-11-21T07:21:50;8.60;99.90
16515;DHT22;8370;52.556;7.970;2023-11-21T07:24:18;8.60;99.90
16515;DHT22;8370;52.556;7.970;2023-11-21T07:26:43;8.70;99.90
16515;DHT22;8370;52.556;7.970;2023-11-21T07:29:09;8.70;99.90
16515;DHT22;8370;52.556;7.970;2023-11-21T07:31:36;8.70;99.90
16515;DHT22;8370;52.556;7.970;2023-11-21T07:34:01;8.60;99.90
16515;DHT22;8370;52.556;7.970;2023-11-21T07:36:27;8.70;99.90
16515;DHT22;8370;52.556;7.970;2023-11-21T07:38:52;8.70;99.90
16515;DHT22;8370;52.556;7.970;2023-11-21T07:41:18;8.70;99.90
16515;DHT22;8370;52.556;7.970;2023-11-21T07:43:44;8.70;99.90
16515;DHT22;8370;52.556;7.970;2023-11-21T07:46:09;8.70;99.90
16515;DHT22;8370;52.556;7.970;2023-11-21T07:48:35;8.70;99.90
16515;DHT22;8370;52.556;7.970;2023-11-21T07:51:02;8.70;99.90
16515;DHT22;8370;52.556;7.970;2023-11-21T07:53:29;8.70;99.90
16515;DHT22;8370;52.556;7.970;2023-11-21T07:55:58;8.70;99.90
16515;DHT22;8370;52.556;7.970;2023-11-21T07:58:24;8.70;99.90
16515;DHT22;8370;52.556;7.970;2023-11-21T08:00:50;8.80;99.90
16515;DHT22;8370;52.556;7.970;2023-11-21T08:03:15;8.80;99.90
16515;DHT22;8370;52.556;7.970;2023-11-21T08:05:41;8.80;99.90
16515;DHT22;8370;52.556;7.970;2023-11-21T08:08:07;8.90;99.90
16515;DHT22;8370;52.556;7.970;2023-11-21T08:10:33;8.90;99.90
16515;DHT22;8370;52.556;7.970;2023-11-21T08:12:58;9.00;99.90
16515;DHT22;8370;52.556;7.970;2023-11-21T08:15:23;9.00;99.90
16515;DHT22;8370;52.556;7.970;2023-11-21T08:17:49;9.00;99.90
16515;DHT22;8370;52.556;7.970;2023-11-21T08:20:14;8.90;99.90
16515;DHT22;8370;52.556;7.970;2023-11-21T08:22:43;8.90;99.90
16515;DHT22;8370;52.556;7.970;2023-11-21T08:25:09;8.90;99.90
16515;DHT22;8370;52.556;7.970;2023-11-21T08:27:34;8.90;99.90
16515;DHT22;8370;52.556;7.970;2023-11-21T08:30:00;8.90;99.90
16515;DHT22;8370;52.556;7.970;2023-11-21T08:32:26;8.90;99.90
16515;DHT22;8370;52.556;7.970;2023-11-21T08:34:51;8.80;99.90
16515;DHT22;8370;52.556;7.970;2023-11-21T08:37:17;8.90;99.90
16515;DHT22;8370;52.556;7.970;2023-11-21T08:39:46;8.80;99.90
16515;DHT22;8370;52.556;7.970;2023-11-21T08:42:13;8.90;99.90
16515;DHT22;8370;52.556;7.970;2023-11-21T08:44:39;8.80;99.90
16515;DHT22;8370;52.556;7.970;2023-11-21T08:47:05;8.80;99.90
16515;DHT22;8370;52.556;7.970;2023-11-21T08:49:31;8.80;99.90
16515;DHT22;8370;52.556;7.970;2023-11-21T08:51:56;8.80;99.90
16515;DHT22;8370;52.556;7.970;2023-11-21T08:54:24;8.80;99.90
16515;DHT22;8370;52.556;7.970;2023-11-21T08:56:51;8.80;99.90
16515;DHT22;8370;52.556;7.970;2023-11-21T08:59:16;8.80;99.90
16515;DHT22;8370;52.556;7.970;2023-11-21T09:01:42;8.70;99.90
16515;DHT22;8370;52.556;7.970;2023-11-21T09:04:07;8.80;99.90
16515;DHT22;8370;52.556;7.970;2023-11-21T09:06:33;8.80;99.90
16515;DHT22;8370;52.556;7.970;2023-11-21T09:08:59;8.80;99.90
16515;DHT22;8370;52.556;7.970;2023-11-21T09:11:24;8.80;99.90
16515;DHT22;8370;52.556;7.970;2023-11-21T09:13:52;8.80;99.90
16515;DHT22;8370;52.556;7.970;2023-11-21T09:16:18;8.80;99.90
16515;DHT22;8370;52.556;7.970;2023-11-21T09:18:44;8.80;99.90
16515;DHT22;8370;52.556;7.970;2023-11-21T09:21:10;8.80;99.90
16515;DHT22;8370;52.556;7.970;2023-11-21T09:23:35;8.80;99.90
16515;DHT22;8370;52.556;7.970;2023-11-21T09:26:01;8.70;99.90
16515;DHT22;8370;52.556;7.970;2023-11-21T09:28:27;8.70;99.90
16515;DHT22;8370;52.556;7.970;2023-11-21T09:30:53;8.80;99.90
16515;DHT22;8370;52.556;7.970;2023-11-21T09:33:18;8.70;99.90
16515;DHT22;8370;52.556;7.970;2023-11-21T09:35:44;8.70;99.90
16515;DHT22;8370;52.556;7.970;2023-11-21T09:38:09;8.70;99.90
16515;DHT22;8370;52.556;7.970;2023-11-21T09:40:38;8.70;99.90
16515;DHT22;8370;52.556;7.970;2023-11-21T09:43:05;8.60;99.90
16515;DHT22;8370;52.556;7.970;2023-11-21T09:45:35;8.60;99.90
16515;DHT22;8370;52.556;7.970;2023-11-21T09:48:04;8.60;99.90
16515;DHT22;8370;52.556;7.970;2023-11-21T09:50:31;8.50;99.90
16515;DHT22;8370;52.556;7.970;2023-11-21T09:55:43;8.60;99.90
16515;DHT22;8370;52.556;7.970;2023-11-21T09:58:10;8.70;99.90
16515;DHT22;8370;52.556;7.970;2023-11-21T10:00:41;8.60;99.90
16515;DHT22;8370;52.556;7.970;2023-11-21T10:03:06;8.60;99.90
16515;DHT22;8370;52.556;7.970;2023-11-21T10:05:32;8.70;99.90
16515;DHT22;8370;52.556;7.970;2023-11-21T10:07:59;8.70;99.90
16515;DHT22;8370;52.556;7.970;2023-11-21T10:10:25;8.70;99.90
16515;DHT22;8370;52.556;7.970;2023-11-21T10:12:51;8.60;99.90
16515;DHT22;8370;52.556;7.970;2023-11-21T10:15:20;8.60;99.90
16515;DHT22;8370;52.556;7.970;2023-11-21T10:17:46;8.70;99.90
16515;DHT22;8370;52.556;7.970;2023-11-21T10:20:13;8.70;99.90
16515;DHT22;8370;52.556;7.970;2023-11-21T10:22:42;8.60;99.90
16515;DHT22;8370;52.556;7.970;2023-11-21T10:25:12;8.60;99.90
16515;DHT22;8370;52.556;7.970;2023-11-21T10:27:40;8.60;99.90
16515;DHT22;8370;52.556;7.970;2023-11-21T10:30:07;8.50;99.90
16515;DHT22;8370;52.556;7.970;2023-11-21T10:32:33;8.50;99.90
16515;DHT22;8370;52.556;7.970;2023-11-21T10:34:59;8.50;99.90
16515;DHT22;8370;52.556;7.970;2023-11-21T10:37:25;8.60;99.90
16515;DHT22;8370;52.556;7.970;2023-11-21T10:39:59;8.60;99.90
16515;DHT22;8370;52.556;7.970;2023-11-21T10:42:24;8.70;99.90
16515;DHT22;8370;52.556;7.970;2023-11-21T10:44:50;8.90;99.90
16515;DHT22;8370;52.556;7.970;2023-11-21T10:47:16;9.10;99.90
16515;DHT22;8370;52.556;7.970;2023-11-21T10:49:44;9.20;99.90
16515;DHT22;8370;52.556;7.970;2023-11-21T10:52:10;9.20;99.90
16515;DHT22;8370;52.556;7.970;2023-11-21T10:54:45;9.30;99.90
16515;DHT22;8370;52.556;7.970;2023-11-21T10:57:11;9.30;99.90
16515;DHT22;8370;52.556;7.970;2023-11-21T10:59:40;9.30;99.90
16515;DHT22;8370;52.556;7.970;2023-11-21T11:02:10;9.30;99.90
16515;DHT22;8370;52.556;7.970;2023-11-21T11:04:38;9.30;99.90
16515;DHT22;8370;52.556;7.970;2023-11-21T11:07:04;9.30;99.90
16515;DHT22;8370;52.556;7.970;2023-11-21T11:09:31;9.40;99.90
16515;DHT22;8370;52.556;7.970;2023-11-21T11:11:59;9.30;99.90
16515;DHT22;8370;52.556;7.970;2023-11-21T11:14:26;9.30;99.90
16515;DHT22;8370;52.556;7.970;2023-11-21T11:16:53;9.30;99.90
16515;DHT22;8370;52.556;7.970;2023-11-21T11:19:19;9.30;99.90
16515;DHT22;8370;52.556;7.970;2023-11-21T11:29:30;9.30;99.90
16515;DHT22;8370;52.556;7.970;2023-11-21T11:32:03;9.30;99.90
16515;DHT22;8370;52.556;7.970;2023-11-21T11:34:35;9.30;99.90
16515;DHT22;8370;52.556;7.970;2023-11-21T11:37:06;9.30;99.90
16515;DHT22;8370;52.556;7.970;2023-11-21T11:39:37;9.30;99.90
16515;DHT22;8370;52.556;7.970;2023-11-21T11:42:06;9.40;99.90
16515;DHT22;8370;52.556;7.970;2023-11-21T11:50:04;9.30;99.90
16515;DHT22;8370;52.556;7.970;2023-11-21T11:54:59;9.20;99.90
16515;DHT22;8370;52.556;7.970;2023-11-21T11:57:25;9.20;99.90
16515;DHT22;8370;52.556;7.970;2023-11-21T12:02:36;9.20;99.90
16515;DHT22;8370;52.556;7.970;2023-11-21T12:05:08;9.20;99.90
16515;DHT22;8370;52.556;7.970;2023-11-21T12:10:11;9.00;99.90
16515;DHT22;8370;52.556;7.970;2023-11-21T12:12:36;9.00;99.90
16515;DHT22;8370;52.556;7.970;2023-11-21T12:15:04;8.90;99.90
16515;DHT22;8370;52.556;7.970;2023-11-21T12:17:30;9.00;99.90
16515;DHT22;8370;52.556;7.970;2023-11-21T12:20:01;9.00;99.90
16515;DHT22;8370;52.556;7.970;2023-11-21T12:22:28;9.10;99.90
16515;DHT22;8370;52.556;7.970;2023-11-21T12:24:54;9.00;99.90
16515;DHT22;8370;52.556;7.970;2023-11-21T12:27:20;8.90;99.90
16515;DHT22;8370;52.556;7.970;2023-11-21T12:29:46;8.90;99.90
16515;DHT22;8370;52.556;7.970;2023-11-21T12:32:11;8.80;99.90
16515;DHT22;8370;52.556;7.970;2023-11-21T12:34:37;8.90;99.90
16515;DHT22;8370;52.556;7.970;2023-11-21T12:37:04;8.90;99.90
16515;DHT22;8370;52.556;7.970;2023-11-21T12:39:29;8.90;99.90
16515;DHT22;8370;52.556;7.970;2023-11-21T12:41:55;8.90;99.90
16515;DHT22;8370;52.556;7.970;2023-11-21T12:44:20;8.90;99.90
16515;DHT22;8370;52.556;7.970;2023-11-21T12:46:49;9.00;99.90
16515;DHT22;8370;52.556;7.970;2023-11-21T12:49:15;8.90;99.90
16515;DHT22;8370;52.556;7.970;2023-11-21T12:51:45;8.90;99.90
16515;DHT22;8370;52.556;7.970;2023-11-21T12:54:11;8.90;99.90
16515;DHT22;8370;52.556;7.970;2023-11-21T12:56:38;8.90;99.90
16515;DHT22;8370;52.556;7.970;2023-11-21T12:59:04;8.90;99.90
16515;DHT22;8370;52.556;7.970;2023-11-21T13:01:30;8.90;99.90
16515;DHT22;8370;52.556;7.970;2023-11-21T13:03:57;9.00;99.90
16515;DHT22;8370;52.556;7.970;2023-11-21T13:06:23;9.00;99.90
16515;DHT22;8370;52.556;7.970;2023-11-21T13:08:51;9.00;99.90
16515;DHT22;8370;52.556;7.970;2023-11-21T13:11:17;9.00;99.90
16515;DHT22;8370;52.556;7.970;2023-11-21T13:13:42;8.90;99.90
16515;DHT22;8370;52.556;7.970;2023-11-21T13:16:11;8.90;99.90
16515;DHT22;8370;52.556;7.970;2023-11-21T13:18:37;8.80;99.90
16515;DHT22;8370;52.556;7.970;2023-11-21T13:21:07;8.80;99.90
16515;DHT22;8370;52.556;7.970;2023-11-21T13:23:41;8.80;99.90
16515;DHT22;8370;52.556;7.970;2023-11-21T13:26:07;8.80;99.90
16515;DHT22;8370;52.556;7.970;2023-11-21T13:28:34;8.80;99.90
16515;DHT22;8370;52.556;7.970;2023-11-21T13:31:00;8.80;99.90
16515;DHT22;8370;52.556;7.970;2023-11-21T13:33:34;8.80;99.90
16515;DHT22;8370;52.556;7.970;2023-11-21T13:36:03;8.80;99.90
16515;DHT22;8370;52.556;7.970;2023-11-21T13:38:32;8.70;99.90
16515;DHT22;8370;52.556;7.970;2023-11-21T13:40:59;8.60;99.90
16515;DHT22;8370;52.556;7.970;2023-11-21T13:43:25;8.70;99.90
16515;DHT22;8370;52.556;7.970;2023-11-21T13:45:51;8.70;99.90
16515;DHT22;8370;52.556;7.970;2023-11-21T13:48:24;8.70;99.90
16515;DHT22;8370;52.556;7.970;2023-11-21T13:51:12;8.60;99.90
16515;DHT22;8370;52.556;7.970;2023-11-21T13:53:48;8.60;99.90
16515;DHT22;8370;52.556;7.970;2023-11-21T13:56:16;8.50;99.90
16515;DHT22;8370;52.556;7.970;2023-11-21T13:58:49;8.60;99.90
16515;DHT22;8370;52.556;7.970;2023-11-21T14:01:21;8.60;99.90
16515;DHT22;8370;52.556;7.970;2023-11-21T14:03:55;8.60;99.90
16515;DHT22;8370;52.556;7.970;2023-11-21T14:06:34;8.50;99.90
16515;DHT22;8370;52.556;7.970;2023-11-21T14:09:02;8.50;99.90
16515;DHT22;8370;52.556;7.970;2023-11-21T14:11:32;8.50;99.90
16515;DHT22;8370;52.556;7.970;2023-11-21T14:13:59;8.40;99.90
16515;DHT22;8370;52.556;7.970;2023-11-21T14:16:25;8.40;99.90
16515;DHT22;8370;52.556;7.970;2023-11-21T14:18:50;8.50;99.90
16515;DHT22;8370;52.556;7.970;2023-11-21T14:21:26;8.40;99.90
16515;DHT22;8370;52.556;7.970;2023-11-21T14:23:52;8.50;99.90
16515;DHT22;8370;52.556;7.970;2023-11-21T14:26:19;8.50;99.90
16515;DHT22;8370;52.556;7.970;2023-11-21T14:28:46;8.50;99.90
16515;DHT22;8370;52.556;7.970;2023-11-21T14:31:14;8.50;99.90
16515;DHT22;8370;52.556;7.970;2023-11-21T14:33:42;8.40;99.90
16515;DHT22;8370;52.556;7.970;2023-11-21T14:36:08;8.30;99.90
16515;DHT22;8370;52.556;7.970;2023-11-21T14:38:35;8.30;99.90
16515;DHT22;8370;52.556;7.970;2023-11-21T14:41:01;8.30;99.90
16515;DHT22;8370;52.556;7.970;2023-11-21T14:43:27;8.30;99.90
16515;DHT22;8370;52.556;7.970;2023-11-21T14:45:55;8.20;99.90
16515;DHT22;8370;52.556;7.970;2023-11-21T14:48:21;8.20;99.90
16515;DHT22;8370;52.556;7.970;2023-11-21T14:50:56;8.20;99.90
16515;DHT22;8370;52.556;7.970;2023-11-21T14:53:28;8.20;99.90
16515;DHT22;8370;52.556;7.970;2023-11-21T14:56:17;8.30;99.90
16515;DHT22;8370;52.556;7.970;2023-11-21T14:58:52;8.20;99.90
16515;DHT22;8370;52.556;7.970;2023-11-21T15:01:17;8.30;99.90
16515;DHT22;8370;52.556;7.970;2023-11-21T15:03:52;8.20;99.90
16515;DHT22;8370;52.556;7.970;2023-11-21T15:06:17;8.20;99.90
16515;DHT22;8370;52.556;7.970;2023-11-21T15:08:57;8.20;99.90
16515;DHT22;8370;52.556;7.970;2023-11-21T15:11:32;8.20;99.90
16515;DHT22;8370;52.556;7.970;2023-11-21T15:13:58;8.20;99.90
16515;DHT22;8370;52.556;7.970;2023-11-21T15:16:24;8.10;99.90
16515;DHT22;8370;52.556;7.970;2023-11-21T15:18:51;8.10;99.90
16515;DHT22;8370;52.556;7.970;2023-11-21T15:21:18;8.20;99.90
16515;DHT22;8370;52.556;7.970;2023-11-21T15:23:44;8.10;99.90
16515;DHT22;8370;52.556;7.970;2023-11-21T15:26:10;8.10;99.90
16515;DHT22;8370;52.556;7.970;2023-11-21T15:28:35;8.00;99.90
16515;DHT22;8370;52.556;7.970;2023-11-21T15:31:01;8.00;99.90
16515;DHT22;8370;52.556;7.970;2023-11-21T15:33:30;8.00;99.90
16515;DHT22;8370;52.556;7.970;2023-11-21T15:35:55;8.00;99.90
16515;DHT22;8370;52.556;7.970;2023-11-21T15:38:20;8.00;99.90
16515;DHT22;8370;52.556;7.970;2023-11-21T15:40:46;8.00;99.90
16515;DHT22;8370;52.556;7.970;2023-11-21T15:43:12;7.90;99.90
16515;DHT22;8370;52.556;7.970;2023-11-21T15:45:38;7.90;99.90
16515;DHT22;8370;52.556;7.970;2023-11-21T15:48:04;7.90;99.90
16515;DHT22;8370;52.556;7.970;2023-11-21T15:50:30;7.90;99.90
16515;DHT22;8370;52.556;7.970;2023-11-21T15:52:57;7.80;99.90
16515;DHT22;8370;52.556;7.970;2023-11-21T15:55:23;7.90;99.90
16515;DHT22;8370;52.556;7.970;2023-11-21T15:57:49;7.80;99.90
16515;DHT22;8370;52.556;7.970;2023-11-21T16:00:14;7.90;99.90
16515;DHT22;8370;52.556;7.970;2023-11-21T16:02:45;7.80;99.90
16515;DHT22;8370;52.556;7.970;2023-11-21T16:05:10;7.80;99.90
16515;DHT22;8370;52.556;7.970;2023-11-21T16:07:42;7.70;99.90
16515;DHT22;8370;52.556;7.970;2023-11-21T16:10:09;7.70;99.90
16515;DHT22;8370;52.556;7.970;2023-11-21T16:12:40;7.60;99.90
16515;DHT22;8370;52.556;7.970;2023-11-21T16:15:06;7.60;99.90
16515;DHT22;8370;52.556;7.970;2023-11-21T16:17:35;7.60;99.90
16515;DHT22;8370;52.556;7.970;2023-11-21T16:20:02;7.60;99.90
16515;DHT22;8370;52.556;7.970;2023-11-21T16:22:31;7.60;99.90